sensor_id;sensor_type;location;lat;lon;timestamp;P1;durP1;ratioP1;P2;durP2;ratioP2
14247;SDS011;7208;49.826;6.004;2023-07-02T00:01:44;5.20;;;1.80;;
14247;SDS011;7208;49.826;6.004;2023-07-02T00:04:09;2.47;;;1.50;;
14247;SDS011;7208;49.826;6.004;2023-07-02T00:06:38;3.23;;;1.93;;
14247;SDS011;7208;49.826;6.004;2023-07-02T00:09:14;3.87;;;2.03;;
14247;SDS011;7208;49.826;6.004;2023-07-02T00:11:44;3.43;;;2.37;;
14247;SDS011;7208;49.826;6.004;2023-07-02T00:14:13;2.83;;;1.90;;
14247;SDS011;7208;49.826;6.004;2023-07-02T00:16:42;3.93;;;2.37;;
14247;SDS011;7208;49.826;6.004;2023-07-02T00:19:09;4.37;;;2.57;;
14247;SDS011;7208;49.826;6.004;2023-07-02T00:21:35;5.50;;;2.50;;
14247;SDS011;7208;49.826;6.004;2023-07-02T00:24:02;2.97;;;2.10;;
14247;SDS011;7208;49.826;6.004;2023-07-02T00:26:28;3.53;;;2.33;;
14247;SDS011;7208;49.826;6.004;2023-07-02T00:28:54;6.17;;;2.87;;
14247;SDS011;7208;49.826;6.004;2023-07-02T00:31:21;6.17;;;2.50;;
14247;SDS011;7208;49.826;6.004;2023-07-02T00:33:49;5.10;;;2.30;;
14247;SDS011;7208;49.826;6.004;2023-07-02T00:36:15;4.37;;;1.67;;
14247;SDS011;7208;49.826;6.004;2023-07-02T00:38:41;3.10;;;1.93;;
14247;SDS011;7208;49.826;6.004;2023-07-02T00:41:08;5.50;;;2.23;;
14247;SDS011;7208;49.826;6.004;2023-07-02T00:43:36;6.20;;;2.63;;
14247;SDS011;7208;49.826;6.004;2023-07-02T00:46:09;3.97;;;2.27;;
14247;SDS011;7208;49.826;6.004;2023-07-02T00:48:35;4.17;;;2.33;;
14247;SDS011;7208;49.826;6.004;2023-07-02T00:51:03;4.47;;;2.50;;
14247;SDS011;7208;49.826;6.004;2023-07-02T00:53:28;3.67;;;2.60;;
14247;SDS011;7208;49.826;6.004;2023-07-02T00:55:54;2.57;;;2.30;;
14247;SDS011;7208;49.826;6.004;2023-07-02T00:58:20;3.50;;;2.43;;
14247;SDS011;7208;49.826;6.004;2023-07-02T01:00:46;3.07;;;2.30;;
14247;SDS011;7208;49.826;6.004;2023-07-02T01:03:12;4.30;;;2.40;;
14247;SDS011;7208;49.826;6.004;2023-07-02T01:05:37;5.57;;;2.70;;
14247;SDS011;7208;49.826;6.004;2023-07-02T01:08:03;4.67;;;3.13;;
14247;SDS011;7208;49.826;6.004;2023-07-02T01:10:30;4.63;;;2.73;;
14247;SDS011;7208;49.826;6.004;2023-07-02T01:12:58;3.67;;;2.63;;
14247;SDS011;7208;49.826;6.004;2023-07-02T01:15:26;4.33;;;2.70;;
14247;SDS011;7208;49.826;6.004;2023-07-02T01:17:52;4.37;;;2.87;;
14247;SDS011;7208;49.826;6.004;2023-07-02T01:20:18;6.47;;;3.10;;
14247;SDS011;7208;49.826;6.004;2023-07-02T01:22:45;4.53;;;2.67;;
14247;SDS011;7208;49.826;6.004;2023-07-02T01:25:14;9.10;;;2.60;;
14247;SDS011;7208;49.826;6.004;2023-07-02T01:27:40;3.93;;;3.33;;
14247;SDS011;7208;49.826;6.004;2023-07-02T01:30:06;3.57;;;3.00;;
14247;SDS011;7208;49.826;6.004;2023-07-02T01:32:34;4.27;;;2.90;;
14247;SDS011;7208;49.826;6.004;2023-07-02T01:34:59;7.73;;;3.70;;
14247;SDS011;7208;49.826;6.004;2023-07-02T01:37:26;6.30;;;3.30;;
14247;SDS011;7208;49.826;6.004;2023-07-02T01:39:51;5.23;;;3.03;;
14247;SDS011;7208;49.826;6.004;2023-07-02T01:42:18;6.07;;;3.07;;
14247;SDS011;7208;49.826;6.004;2023-07-02T01:44:44;4.47;;;2.67;;
14247;SDS011;7208;49.826;6.004;2023-07-02T01:47:11;8.00;;;3.17;;
14247;SDS011;7208;49.826;6.004;2023-07-02T01:49:37;5.13;;;3.20;;
14247;SDS011;7208;49.826;6.004;2023-07-02T01:52:03;5.70;;;3.37;;
14247;SDS011;7208;49.826;6.004;2023-07-02T01:54:30;7.97;;;3.73;;
14247;SDS011;7208;49.826;6.004;2023-07-02T01:56:57;5.30;;;3.00;;
14247;SDS011;7208;49.826;6.004;2023-07-02T01:59:23;6.90;;;3.50;;
14247;SDS011;7208;49.826;6.004;2023-07-02T02:01:49;4.47;;;3.23;;
14247;SDS011;7208;49.826;6.004;2023-07-02T02:04:15;4.83;;;3.30;;
14247;SDS011;7208;49.826;6.004;2023-07-02T02:06:41;6.37;;;3.67;;
14247;SDS011;7208;49.826;6.004;2023-07-02T02:09:06;6.23;;;3.93;;
14247;SDS011;7208;49.826;6.004;2023-07-02T02:11:34;6.83;;;3.70;;
14247;SDS011;7208;49.826;6.004;2023-07-02T02:14:04;4.70;;;3.10;;
14247;SDS011;7208;49.826;6.004;2023-07-02T02:16:30;8.17;;;5.03;;
14247;SDS011;7208;49.826;6.004;2023-07-02T02:18:55;6.87;;;4.10;;
14247;SDS011;7208;49.826;6.004;2023-07-02T02:21:21;7.70;;;4.80;;
14247;SDS011;7208;49.826;6.004;2023-07-02T02:23:47;7.57;;;3.93;;
14247;SDS011;7208;49.826;6.004;2023-07-02T02:26:13;9.00;;;4.60;;
14247;SDS011;7208;49.826;6.004;2023-07-02T02:28:39;12.20;;;5.00;;
14247;SDS011;7208;49.826;6.004;2023-07-02T02:31:06;7.87;;;5.13;;
14247;SDS011;7208;49.826;6.004;2023-07-02T02:33:32;6.43;;;3.77;;
14247;SDS011;7208;49.826;6.004;2023-07-02T02:35:58;8.63;;;5.20;;
14247;SDS011;7208;49.826;6.004;2023-07-02T02:38:24;6.47;;;3.87;;
14247;SDS011;7208;49.826;6.004;2023-07-02T02:40:49;10.93;;;4.77;;
14247;SDS011;7208;49.826;6.004;2023-07-02T02:43:15;7.03;;;4.13;;
14247;SDS011;7208;49.826;6.004;2023-07-02T02:45:43;9.67;;;4.77;;
14247;SDS011;7208;49.826;6.004;2023-07-02T02:48:09;8.70;;;4.27;;
14247;SDS011;7208;49.826;6.004;2023-07-02T02:50:35;9.07;;;5.07;;
14247;SDS011;7208;49.826;6.004;2023-07-02T02:53:06;8.23;;;5.03;;
14247;SDS011;7208;49.826;6.004;2023-07-02T02:55:32;13.67;;;5.73;;
14247;SDS011;7208;49.826;6.004;2023-07-02T02:57:58;11.60;;;4.80;;
14247;SDS011;7208;49.826;6.004;2023-07-02T03:00:24;9.00;;;4.87;;
14247;SDS011;7208;49.826;6.004;2023-07-02T03:02:49;9.67;;;5.20;;
14247;SDS011;7208;49.826;6.004;2023-07-02T03:05:15;10.00;;;4.77;;
14247;SDS011;7208;49.826;6.004;2023-07-02T03:07:41;11.33;;;4.80;;
14247;SDS011;7208;49.826;6.004;2023-07-02T03:10:07;11.90;;;5.80;;
14247;SDS011;7208;49.826;6.004;2023-07-02T03:12:32;7.03;;;5.30;;
14247;SDS011;7208;49.826;6.004;2023-07-02T03:14:58;9.77;;;5.33;;
14247;SDS011;7208;49.826;6.004;2023-07-02T03:17:24;10.93;;;5.00;;
14247;SDS011;7208;49.826;6.004;2023-07-02T03:19:49;10.97;;;5.23;;
14247;SDS011;7208;49.826;6.004;2023-07-02T03:22:15;10.33;;;5.17;;
14247;SDS011;7208;49.826;6.004;2023-07-02T03:24:41;9.40;;;5.00;;
14247;SDS011;7208;49.826;6.004;2023-07-02T03:27:07;10.97;;;4.97;;
14247;SDS011;7208;49.826;6.004;2023-07-02T03:29:35;10.97;;;5.07;;
14247;SDS011;7208;49.826;6.004;2023-07-02T03:32:03;8.47;;;5.87;;
14247;SDS011;7208;49.826;6.004;2023-07-02T03:34:29;12.50;;;5.10;;
14247;SDS011;7208;49.826;6.004;2023-07-02T03:36:55;7.83;;;5.43;;
14247;SDS011;7208;49.826;6.004;2023-07-02T03:39:21;9.80;;;4.90;;
14247;SDS011;7208;49.826;6.004;2023-07-02T03:41:46;10.67;;;5.83;;
14247;SDS011;7208;49.826;6.004;2023-07-02T03:44:12;8.17;;;5.43;;
14247;SDS011;7208;49.826;6.004;2023-07-02T03:46:37;10.00;;;4.63;;
14247;SDS011;7208;49.826;6.004;2023-07-02T03:49:03;11.50;;;5.10;;
14247;SDS011;7208;49.826;6.004;2023-07-02T03:51:29;7.63;;;4.73;;
14247;SDS011;7208;49.826;6.004;2023-07-02T03:53:55;11.27;;;5.70;;
14247;SDS011;7208;49.826;6.004;2023-07-02T03:56:23;8.67;;;5.13;;
14247;SDS011;7208;49.826;6.004;2023-07-02T03:58:49;8.70;;;5.83;;
14247;SDS011;7208;49.826;6.004;2023-07-02T04:01:15;8.33;;;4.80;;
14247;SDS011;7208;49.826;6.004;2023-07-02T04:03:42;11.07;;;6.17;;
14247;SDS011;7208;49.826;6.004;2023-07-02T04:06:17;14.83;;;6.10;;
14247;SDS011;7208;49.826;6.004;2023-07-02T04:08:43;9.77;;;5.33;;
14247;SDS011;7208;49.826;6.004;2023-07-02T04:11:09;13.50;;;6.30;;
14247;SDS011;7208;49.826;6.004;2023-07-02T04:13:36;11.10;;;5.97;;
14247;SDS011;7208;49.826;6.004;2023-07-02T04:16:02;11.77;;;5.67;;
14247;SDS011;7208;49.826;6.004;2023-07-02T04:18:27;18.63;;;6.10;;
14247;SDS011;7208;49.826;6.004;2023-07-02T04:20:54;10.77;;;6.33;;
14247;SDS011;7208;49.826;6.004;2023-07-02T04:23:20;11.67;;;5.73;;
14247;SDS011;7208;49.826;6.004;2023-07-02T04:25:46;9.93;;;5.43;;
14247;SDS011;7208;49.826;6.004;2023-07-02T04:28:11;10.97;;;6.57;;
14247;SDS011;7208;49.826;6.004;2023-07-02T04:30:37;14.27;;;5.83;;
14247;SDS011;7208;49.826;6.004;2023-07-02T04:33:03;10.53;;;4.83;;
14247;SDS011;7208;49.826;6.004;2023-07-02T04:35:30;11.20;;;5.90;;
14247;SDS011;7208;49.826;6.004;2023-07-02T04:37:56;15.53;;;6.20;;
14247;SDS011;7208;49.826;6.004;2023-07-02T04:40:22;9.63;;;6.00;;
14247;SDS011;7208;49.826;6.004;2023-07-02T04:42:48;14.97;;;6.83;;
14247;SDS011;7208;49.826;6.004;2023-07-02T04:45:14;11.03;;;5.67;;
14247;SDS011;7208;49.826;6.004;2023-07-02T04:47:43;14.50;;;6.23;;
14247;SDS011;7208;49.826;6.004;2023-07-02T04:50:10;15.63;;;6.33;;
14247;SDS011;7208;49.826;6.004;2023-07-02T04:52:36;14.27;;;6.73;;
14247;SDS011;7208;49.826;6.004;2023-07-02T04:55:03;12.13;;;7.23;;
14247;SDS011;7208;49.826;6.004;2023-07-02T04:57:29;16.20;;;6.30;;
14247;SDS011;7208;49.826;6.004;2023-07-02T04:59:55;12.70;;;7.73;;
14247;SDS011;7208;49.826;6.004;2023-07-02T05:02:21;15.10;;;6.70;;
14247;SDS011;7208;49.826;6.004;2023-07-02T05:04:46;15.93;;;8.20;;
14247;SDS011;7208;49.826;6.004;2023-07-02T05:07:12;18.60;;;7.30;;
14247;SDS011;7208;49.826;6.004;2023-07-02T05:09:38;12.60;;;7.00;;
14247;SDS011;7208;49.826;6.004;2023-07-02T05:12:03;13.67;;;7.40;;
14247;SDS011;7208;49.826;6.004;2023-07-02T05:14:29;13.97;;;8.13;;
14247;SDS011;7208;49.826;6.004;2023-07-02T05:16:55;20.73;;;8.40;;
14247;SDS011;7208;49.826;6.004;2023-07-02T05:19:20;15.13;;;7.50;;
14247;SDS011;7208;49.826;6.004;2023-07-02T05:21:46;19.43;;;8.93;;
14247;SDS011;7208;49.826;6.004;2023-07-02T05:24:11;10.00;;;7.70;;
14247;SDS011;7208;49.826;6.004;2023-07-02T05:26:37;14.30;;;8.70;;
14247;SDS011;7208;49.826;6.004;2023-07-02T05:29:03;16.87;;;8.70;;
14247;SDS011;7208;49.826;6.004;2023-07-02T05:31:30;18.20;;;9.00;;
14247;SDS011;7208;49.826;6.004;2023-07-02T05:33:56;16.37;;;9.03;;
14247;SDS011;7208;49.826;6.004;2023-07-02T05:36:21;14.13;;;9.13;;
14247;SDS011;7208;49.826;6.004;2023-07-02T05:38:47;19.23;;;8.90;;
14247;SDS011;7208;49.826;6.004;2023-07-02T05:41:21;14.80;;;9.10;;
14247;SDS011;7208;49.826;6.004;2023-07-02T05:43:47;16.27;;;8.77;;
14247;SDS011;7208;49.826;6.004;2023-07-02T05:46:14;17.90;;;8.47;;
14247;SDS011;7208;49.826;6.004;2023-07-02T05:48:40;17.03;;;8.60;;
14247;SDS011;7208;49.826;6.004;2023-07-02T05:51:07;16.27;;;9.97;;
14247;SDS011;7208;49.826;6.004;2023-07-02T05:53:33;16.50;;;9.83;;
14247;SDS011;7208;49.826;6.004;2023-07-02T05:55:59;15.53;;;8.83;;
14247;SDS011;7208;49.826;6.004;2023-07-02T05:58:24;14.47;;;9.03;;
14247;SDS011;7208;49.826;6.004;2023-07-02T06:00:50;12.87;;;8.33;;
14247;SDS011;7208;49.826;6.004;2023-07-02T06:03:16;15.00;;;9.73;;
14247;SDS011;7208;49.826;6.004;2023-07-02T06:05:48;19.13;;;9.47;;
14247;SDS011;7208;49.826;6.004;2023-07-02T06:08:15;16.60;;;8.87;;
14247;SDS011;7208;49.826;6.004;2023-07-02T06:10:41;13.20;;;8.73;;
14247;SDS011;7208;49.826;6.004;2023-07-02T06:13:10;17.33;;;9.53;;
14247;SDS011;7208;49.826;6.004;2023-07-02T06:15:36;17.13;;;9.23;;
14247;SDS011;7208;49.826;6.004;2023-07-02T06:18:02;17.40;;;9.30;;
14247;SDS011;7208;49.826;6.004;2023-07-02T06:20:27;15.30;;;9.53;;
14247;SDS011;7208;49.826;6.004;2023-07-02T06:22:53;15.17;;;9.80;;
14247;SDS011;7208;49.826;6.004;2023-07-02T06:25:19;18.83;;;9.30;;
14247;SDS011;7208;49.826;6.004;2023-07-02T06:27:44;14.27;;;9.27;;
14247;SDS011;7208;49.826;6.004;2023-07-02T06:30:10;20.83;;;9.97;;
14247;SDS011;7208;49.826;6.004;2023-07-02T06:32:37;15.90;;;9.50;;
14247;SDS011;7208;49.826;6.004;2023-07-02T06:35:02;15.83;;;9.27;;
14247;SDS011;7208;49.826;6.004;2023-07-02T06:37:28;13.07;;;9.03;;
14247;SDS011;7208;49.826;6.004;2023-07-02T06:39:54;15.63;;;8.90;;
14247;SDS011;7208;49.826;6.004;2023-07-02T06:42:20;14.93;;;9.27;;
14247;SDS011;7208;49.826;6.004;2023-07-02T06:44:46;14.40;;;8.37;;
14247;SDS011;7208;49.826;6.004;2023-07-02T06:47:12;18.43;;;10.63;;
14247;SDS011;7208;49.826;6.004;2023-07-02T06:49:38;14.43;;;9.33;;
14247;SDS011;7208;49.826;6.004;2023-07-02T06:52:03;14.57;;;8.80;;
14247;SDS011;7208;49.826;6.004;2023-07-02T06:54:29;12.70;;;7.80;;
14247;SDS011;7208;49.826;6.004;2023-07-02T06:56:55;15.13;;;8.60;;
14247;SDS011;7208;49.826;6.004;2023-07-02T06:59:23;13.53;;;8.57;;
14247;SDS011;7208;49.826;6.004;2023-07-02T07:01:49;17.03;;;9.23;;
14247;SDS011;7208;49.826;6.004;2023-07-02T07:04:15;16.83;;;8.83;;
14247;SDS011;7208;49.826;6.004;2023-07-02T07:06:41;18.80;;;8.97;;
14247;SDS011;7208;49.826;6.004;2023-07-02T07:09:07;14.70;;;9.57;;
14247;SDS011;7208;49.826;6.004;2023-07-02T07:11:33;10.50;;;8.53;;
14247;SDS011;7208;49.826;6.004;2023-07-02T07:13:58;19.37;;;9.00;;
14247;SDS011;7208;49.826;6.004;2023-07-02T07:16:24;14.00;;;9.20;;
14247;SDS011;7208;49.826;6.004;2023-07-02T07:18:50;18.43;;;9.87;;
14247;SDS011;7208;49.826;6.004;2023-07-02T07:21:15;15.63;;;8.80;;
14247;SDS011;7208;49.826;6.004;2023-07-02T07:23:41;20.03;;;10.80;;
14247;SDS011;7208;49.826;6.004;2023-07-02T07:26:07;19.07;;;9.43;;
14247;SDS011;7208;49.826;6.004;2023-07-02T07:28:32;14.57;;;9.83;;
14247;SDS011;7208;49.826;6.004;2023-07-02T07:30:58;19.60;;;10.03;;
14247;SDS011;7208;49.826;6.004;2023-07-02T07:33:24;18.50;;;9.50;;
14247;SDS011;7208;49.826;6.004;2023-07-02T07:35:49;17.60;;;9.57;;
14247;SDS011;7208;49.826;6.004;2023-07-02T07:38:15;15.40;;;9.10;;
14247;SDS011;7208;49.826;6.004;2023-07-02T07:40:42;12.77;;;9.33;;
14247;SDS011;7208;49.826;6.004;2023-07-02T07:43:08;14.97;;;8.63;;
14247;SDS011;7208;49.826;6.004;2023-07-02T07:45:34;16.23;;;8.83;;
14247;SDS011;7208;49.826;6.004;2023-07-02T07:48:00;19.10;;;9.53;;
14247;SDS011;7208;49.826;6.004;2023-07-02T07:50:26;12.13;;;8.50;;
14247;SDS011;7208;49.826;6.004;2023-07-02T07:52:51;13.23;;;9.00;;
14247;SDS011;7208;49.826;6.004;2023-07-02T07:55:17;16.10;;;9.10;;
14247;SDS011;7208;49.826;6.004;2023-07-02T07:57:43;16.07;;;9.57;;
14247;SDS011;7208;49.826;6.004;2023-07-02T08:00:09;18.93;;;9.97;;
14247;SDS011;7208;49.826;6.004;2023-07-02T08:02:35;14.77;;;9.70;;
14247;SDS011;7208;49.826;6.004;2023-07-02T08:05:01;16.57;;;9.30;;
14247;SDS011;7208;49.826;6.004;2023-07-02T08:07:27;16.07;;;9.33;;
14247;SDS011;7208;49.826;6.004;2023-07-02T08:09:53;18.97;;;9.47;;
14247;SDS011;7208;49.826;6.004;2023-07-02T08:12:18;13.43;;;8.37;;
14247;SDS011;7208;49.826;6.004;2023-07-02T08:14:44;13.87;;;9.23;;
14247;SDS011;7208;49.826;6.004;2023-07-02T08:17:09;13.27;;;8.97;;
14247;SDS011;7208;49.826;6.004;2023-07-02T08:19:35;15.23;;;9.20;;
14247;SDS011;7208;49.826;6.004;2023-07-02T08:22:00;15.53;;;9.63;;
14247;SDS011;7208;49.826;6.004;2023-07-02T08:24:27;17.70;;;9.37;;
14247;SDS011;7208;49.826;6.004;2023-07-02T08:26:53;14.97;;;9.60;;
14247;SDS011;7208;49.826;6.004;2023-07-02T08:29:19;18.13;;;9.87;;
14247;SDS011;7208;49.826;6.004;2023-07-02T08:31:44;17.90;;;9.27;;
14247;SDS011;7208;49.826;6.004;2023-07-02T08:34:10;14.83;;;8.40;;
14247;SDS011;7208;49.826;6.004;2023-07-02T08:36:35;17.87;;;9.00;;
14247;SDS011;7208;49.826;6.004;2023-07-02T08:39:01;15.57;;;8.27;;
14247;SDS011;7208;49.826;6.004;2023-07-02T08:41:27;14.17;;;9.23;;
14247;SDS011;7208;49.826;6.004;2023-07-02T08:43:54;14.43;;;8.17;;
14247;SDS011;7208;49.826;6.004;2023-07-02T08:46:21;17.73;;;9.70;;
14247;SDS011;7208;49.826;6.004;2023-07-02T08:48:47;12.17;;;8.63;;
14247;SDS011;7208;49.826;6.004;2023-07-02T08:51:13;18.30;;;9.40;;
14247;SDS011;7208;49.826;6.004;2023-07-02T08:53:38;14.00;;;8.90;;
14247;SDS011;7208;49.826;6.004;2023-07-02T08:56:04;15.33;;;8.80;;
14247;SDS011;7208;49.826;6.004;2023-07-02T08:58:30;18.13;;;9.53;;
14247;SDS011;7208;49.826;6.004;2023-07-02T09:01:05;15.43;;;8.73;;
14247;SDS011;7208;49.826;6.004;2023-07-02T09:03:35;11.63;;;8.37;;
14247;SDS011;7208;49.826;6.004;2023-07-02T09:06:04;13.73;;;8.77;;
14247;SDS011;7208;49.826;6.004;2023-07-02T09:08:31;14.87;;;8.57;;
14247;SDS011;7208;49.826;6.004;2023-07-02T09:11:32;12.27;;;9.10;;
14247;SDS011;7208;49.826;6.004;2023-07-02T09:13:51;13.60;;;8.53;;
14247;SDS011;7208;49.826;6.004;2023-07-02T09:16:34;12.73;;;7.93;;
14247;SDS011;7208;49.826;6.004;2023-07-02T09:19:02;13.10;;;7.60;;
14247;SDS011;7208;49.826;6.004;2023-07-02T09:24:23;17.20;;;8.33;;
14247;SDS011;7208;49.826;6.004;2023-07-02T09:26:50;11.77;;;8.17;;
14247;SDS011;7208;49.826;6.004;2023-07-02T09:29:27;12.90;;;8.60;;
14247;SDS011;7208;49.826;6.004;2023-07-02T09:31:54;11.57;;;7.93;;
14247;SDS011;7208;49.826;6.004;2023-07-02T09:34:26;11.83;;;7.87;;
14247;SDS011;7208;49.826;6.004;2023-07-02T09:36:56;14.17;;;8.53;;
14247;SDS011;7208;49.826;6.004;2023-07-02T09:39:27;11.00;;;8.23;;
14247;SDS011;7208;49.826;6.004;2023-07-02T09:41:57;11.20;;;7.47;;
14247;SDS011;7208;49.826;6.004;2023-07-02T09:44:26;12.37;;;7.73;;
14247;SDS011;7208;49.826;6.004;2023-07-02T09:49:39;13.40;;;7.80;;
14247;SDS011;7208;49.826;6.004;2023-07-02T09:52:07;10.43;;;7.30;;
14247;SDS011;7208;49.826;6.004;2023-07-02T09:54:34;13.10;;;7.10;;
14247;SDS011;7208;49.826;6.004;2023-07-02T09:57:01;12.20;;;7.00;;
14247;SDS011;7208;49.826;6.004;2023-07-02T09:59:28;10.87;;;7.83;;
14247;SDS011;7208;49.826;6.004;2023-07-02T10:01:54;8.90;;;7.13;;
14247;SDS011;7208;49.826;6.004;2023-07-02T10:04:20;10.57;;;7.17;;
14247;SDS011;7208;49.826;6.004;2023-07-02T10:06:52;13.23;;;8.53;;
14247;SDS011;7208;49.826;6.004;2023-07-02T10:12:20;12.77;;;8.17;;
14247;SDS011;7208;49.826;6.004;2023-07-02T10:14:48;15.87;;;7.43;;
14247;SDS011;7208;49.826;6.004;2023-07-02T10:19:57;10.33;;;7.37;;
14247;SDS011;7208;49.826;6.004;2023-07-02T10:22:24;10.80;;;7.30;;
14247;SDS011;7208;49.826;6.004;2023-07-02T10:24:59;12.73;;;7.63;;
14247;SDS011;7208;49.826;6.004;2023-07-02T10:30:01;15.37;;;8.50;;
14247;SDS011;7208;49.826;6.004;2023-07-02T10:32:28;13.47;;;7.87;;
14247;SDS011;7208;49.826;6.004;2023-07-02T10:34:54;14.00;;;7.03;;
14247;SDS011;7208;49.826;6.004;2023-07-02T10:37:20;12.13;;;8.00;;
14247;SDS011;7208;49.826;6.004;2023-07-02T10:39:46;11.83;;;7.47;;
14247;SDS011;7208;49.826;6.004;2023-07-02T10:42:12;12.73;;;8.20;;
14247;SDS011;7208;49.826;6.004;2023-07-02T10:44:50;13.93;;;6.87;;
14247;SDS011;7208;49.826;6.004;2023-07-02T10:47:17;13.37;;;7.30;;
14247;SDS011;7208;49.826;6.004;2023-07-02T10:49:44;8.93;;;7.07;;
14247;SDS011;7208;49.826;6.004;2023-07-02T10:52:09;11.73;;;7.53;;
14247;SDS011;7208;49.826;6.004;2023-07-02T10:54:45;12.40;;;7.60;;
14247;SDS011;7208;49.826;6.004;2023-07-02T10:57:15;8.30;;;6.50;;
14247;SDS011;7208;49.826;6.004;2023-07-02T10:59:46;8.57;;;7.00;;
14247;SDS011;7208;49.826;6.004;2023-07-02T11:02:13;11.13;;;7.03;;
14247;SDS011;7208;49.826;6.004;2023-07-02T11:04:39;11.03;;;7.03;;
14247;SDS011;7208;49.826;6.004;2023-07-02T11:07:05;7.87;;;6.87;;
14247;SDS011;7208;49.826;6.004;2023-07-02T11:09:31;11.37;;;7.60;;
14247;SDS011;7208;49.826;6.004;2023-07-02T11:11:58;12.07;;;7.90;;
14247;SDS011;7208;49.826;6.004;2023-07-02T11:14:28;16.10;;;7.77;;
14247;SDS011;7208;49.826;6.004;2023-07-02T11:16:58;11.17;;;7.20;;
14247;SDS011;7208;49.826;6.004;2023-07-02T11:19:27;8.53;;;7.17;;
14247;SDS011;7208;49.826;6.004;2023-07-02T11:21:53;11.33;;;7.03;;
14247;SDS011;7208;49.826;6.004;2023-07-02T11:24:33;11.87;;;6.70;;
14247;SDS011;7208;49.826;6.004;2023-07-02T11:27:00;12.43;;;7.50;;
14247;SDS011;7208;49.826;6.004;2023-07-02T11:29:31;12.50;;;7.90;;
14247;SDS011;7208;49.826;6.004;2023-07-02T11:34:34;11.77;;;7.27;;
14247;SDS011;7208;49.826;6.004;2023-07-02T11:37:00;9.47;;;6.93;;
14247;SDS011;7208;49.826;6.004;2023-07-02T11:39:26;9.43;;;6.73;;
14247;SDS011;7208;49.826;6.004;2023-07-02T11:41:52;10.13;;;6.47;;
14247;SDS011;7208;49.826;6.004;2023-07-02T11:44:18;9.27;;;6.77;;
14247;SDS011;7208;49.826;6.004;2023-07-02T11:46:44;9.73;;;6.63;;
14247;SDS011;7208;49.826;6.004;2023-07-02T11:49:10;9.53;;;6.43;;
14247;SDS011;7208;49.826;6.004;2023-07-02T11:51:36;10.17;;;6.67;;
14247;SDS011;7208;49.826;6.004;2023-07-02T11:54:03;8.23;;;6.17;;
14247;SDS011;7208;49.826;6.004;2023-07-02T11:56:29;9.77;;;6.90;;
14247;SDS011;7208;49.826;6.004;2023-07-02T11:58:55;8.90;;;6.33;;
14247;SDS011;7208;49.826;6.004;2023-07-02T12:01:21;11.93;;;7.47;;
14247;SDS011;7208;49.826;6.004;2023-07-02T12:03:46;10.00;;;6.70;;
14247;SDS011;7208;49.826;6.004;2023-07-02T12:06:12;11.77;;;6.93;;
14247;SDS011;7208;49.826;6.004;2023-07-02T12:08:38;14.03;;;7.23;;
14247;SDS011;7208;49.826;6.004;2023-07-02T12:11:04;13.00;;;7.20;;
14247;SDS011;7208;49.826;6.004;2023-07-02T12:13:29;10.97;;;6.77;;
14247;SDS011;7208;49.826;6.004;2023-07-02T12:15:55;14.70;;;6.63;;
14247;SDS011;7208;49.826;6.004;2023-07-02T12:18:20;12.07;;;6.50;;
14247;SDS011;7208;49.826;6.004;2023-07-02T12:20:46;11.57;;;6.43;;
14247;SDS011;7208;49.826;6.004;2023-07-02T12:23:12;8.87;;;6.37;;
14247;SDS011;7208;49.826;6.004;2023-07-02T12:25:37;10.97;;;6.93;;
14247;SDS011;7208;49.826;6.004;2023-07-02T12:28:03;10.87;;;7.10;;
14247;SDS011;7208;49.826;6.004;2023-07-02T12:30:30;13.47;;;6.90;;
14247;SDS011;7208;49.826;6.004;2023-07-02T12:32:56;10.10;;;6.87;;
14247;SDS011;7208;49.826;6.004;2023-07-02T12:35:21;9.17;;;6.63;;
14247;SDS011;7208;49.826;6.004;2023-07-02T12:37:49;11.93;;;6.93;;
14247;SDS011;7208;49.826;6.004;2023-07-02T12:40:16;10.80;;;6.30;;
14247;SDS011;7208;49.826;6.004;2023-07-02T12:42:43;10.73;;;6.70;;
14247;SDS011;7208;49.826;6.004;2023-07-02T12:45:10;10.17;;;6.47;;
14247;SDS011;7208;49.826;6.004;2023-07-02T12:47:37;9.50;;;6.17;;
14247;SDS011;7208;49.826;6.004;2023-07-02T12:50:04;11.17;;;6.07;;
14247;SDS011;7208;49.826;6.004;2023-07-02T12:52:30;8.43;;;6.23;;
14247;SDS011;7208;49.826;6.004;2023-07-02T12:54:56;10.03;;;6.20;;
14247;SDS011;7208;49.826;6.004;2023-07-02T12:57:21;7.87;;;5.63;;
14247;SDS011;7208;49.826;6.004;2023-07-02T12:59:47;8.37;;;6.20;;
14247;SDS011;7208;49.826;6.004;2023-07-02T13:02:13;9.33;;;5.70;;
14247;SDS011;7208;49.826;6.004;2023-07-02T13:04:38;10.07;;;5.93;;
14247;SDS011;7208;49.826;6.004;2023-07-02T13:07:04;8.57;;;6.63;;
14247;SDS011;7208;49.826;6.004;2023-07-02T13:09:30;8.47;;;6.40;;
14247;SDS011;7208;49.826;6.004;2023-07-02T13:11:56;7.70;;;5.60;;
14247;SDS011;7208;49.826;6.004;2023-07-02T13:14:21;11.33;;;6.30;;
14247;SDS011;7208;49.826;6.004;2023-07-02T13:16:47;8.20;;;6.07;;
14247;SDS011;7208;49.826;6.004;2023-07-02T13:19:13;10.33;;;6.00;;
14247;SDS011;7208;49.826;6.004;2023-07-02T13:21:40;9.30;;;5.77;;
14247;SDS011;7208;49.826;6.004;2023-07-02T13:24:06;9.30;;;6.07;;
14247;SDS011;7208;49.826;6.004;2023-07-02T13:26:31;12.93;;;6.47;;
14247;SDS011;7208;49.826;6.004;2023-07-02T13:28:57;8.17;;;5.80;;
14247;SDS011;7208;49.826;6.004;2023-07-02T13:31:23;6.43;;;5.50;;
14247;SDS011;7208;49.826;6.004;2023-07-02T13:33:49;7.37;;;5.97;;
14247;SDS011;7208;49.826;6.004;2023-07-02T13:36:15;8.70;;;6.00;;
14247;SDS011;7208;49.826;6.004;2023-07-02T13:38:41;10.33;;;6.37;;
14247;SDS011;7208;49.826;6.004;2023-07-02T13:41:07;9.33;;;5.87;;
14247;SDS011;7208;49.826;6.004;2023-07-02T13:43:32;8.13;;;5.07;;
14247;SDS011;7208;49.826;6.004;2023-07-02T13:45:58;6.23;;;5.63;;
14247;SDS011;7208;49.826;6.004;2023-07-02T13:48:24;9.27;;;6.30;;
14247;SDS011;7208;49.826;6.004;2023-07-02T13:50:50;10.23;;;5.88;;
14247;SDS011;7208;49.826;6.004;2023-07-02T13:53:15;8.85;;;5.68;;
14247;SDS011;7208;49.826;6.004;2023-07-02T13:55:41;12.30;;;6.00;;
14247;SDS011;7208;49.826;6.004;2023-07-02T13:58:07;10.80;;;5.60;;
14247;SDS011;7208;49.826;6.004;2023-07-02T14:00:32;6.68;;;5.47;;
14247;SDS011;7208;49.826;6.004;2023-07-02T14:02:58;10.67;;;5.93;;
14247;SDS011;7208;49.826;6.004;2023-07-02T14:05:24;9.10;;;4.90;;
14247;SDS011;7208;49.826;6.004;2023-07-02T14:07:49;6.93;;;5.50;;
14247;SDS011;7208;49.826;6.004;2023-07-02T14:10:15;9.20;;;5.57;;
14247;SDS011;7208;49.826;6.004;2023-07-02T14:12:41;9.25;;;5.80;;
14247;SDS011;7208;49.826;6.004;2023-07-02T14:15:08;7.13;;;5.05;;
14247;SDS011;7208;49.826;6.004;2023-07-02T14:17:34;8.52;;;5.38;;
14247;SDS011;7208;49.826;6.004;2023-07-02T14:20:01;7.72;;;5.25;;
14247;SDS011;7208;49.826;6.004;2023-07-02T14:22:27;9.25;;;5.90;;
14247;SDS011;7208;49.826;6.004;2023-07-02T14:24:53;8.82;;;5.60;;
14247;SDS011;7208;49.826;6.004;2023-07-02T14:27:19;6.55;;;5.20;;
14247;SDS011;7208;49.826;6.004;2023-07-02T14:29:44;9.80;;;5.10;;
14247;SDS011;7208;49.826;6.004;2023-07-02T14:32:12;8.95;;;5.97;;
14247;SDS011;7208;49.826;6.004;2023-07-02T14:34:38;9.38;;;5.32;;
14247;SDS011;7208;49.826;6.004;2023-07-02T14:37:04;7.77;;;5.40;;
14247;SDS011;7208;49.826;6.004;2023-07-02T14:39:30;8.13;;;5.27;;
14247;SDS011;7208;49.826;6.004;2023-07-02T14:41:56;9.85;;;5.40;;
14247;SDS011;7208;49.826;6.004;2023-07-02T14:44:22;9.52;;;5.65;;
14247;SDS011;7208;49.826;6.004;2023-07-02T14:46:48;8.63;;;5.00;;
14247;SDS011;7208;49.826;6.004;2023-07-02T14:49:13;7.22;;;4.97;;
14247;SDS011;7208;49.826;6.004;2023-07-02T14:51:39;6.05;;;4.57;;
14247;SDS011;7208;49.826;6.004;2023-07-02T14:54:05;6.45;;;4.93;;
14247;SDS011;7208;49.826;6.004;2023-07-02T14:56:32;8.95;;;5.25;;
14247;SDS011;7208;49.826;6.004;2023-07-02T14:58:58;7.70;;;4.95;;
14247;SDS011;7208;49.826;6.004;2023-07-02T15:01:24;7.50;;;4.72;;
14247;SDS011;7208;49.826;6.004;2023-07-02T15:03:50;4.97;;;4.13;;
14247;SDS011;7208;49.826;6.004;2023-07-02T15:06:16;6.53;;;5.15;;